sensor_id;sensor_type;location;lat;lon;timestamp;temperature;humidity
2751;DHT22;1383;48.362;10.908;2023-08-20T13:07:36;33.40;16.40
2751;DHT22;1383;48.362;10.908;2023-08-20T13:10:04;33.50;16.20
2751;DHT22;1383;48.362;10.908;2023-08-20T13:12:33;33.50;16.30
2751;DHT22;1383;48.362;10.908;2023-08-20T13:15:01;33.50;16.60
2751;DHT22;1383;48.362;10.908;2023-08-20T13:17:30;33.50;16.30
2751;DHT22;1383;48.362;10.908;2023-08-20T13:19:58;33.50;16.20
2751;DHT22;1383;48.362;10.908;2023-08-20T13:22:25;33.60;16.40
2751;DHT22;1383;48.362;10.908;2023-08-20T13:24:52;33.60;16.50
2751;DHT22;1383;48.362;10.908;2023-08-20T13:27:20;33.70;16.60
2751;DHT22;1383;48.362;10.908;2023-08-20T13:29:47;33.70;16.40
2751;DHT22;1383;48.362;10.908;2023-08-20T13:32:14;33.40;16.70
2751;DHT22;1383;48.362;10.908;2023-08-20T13:34:42;33.20;16.80
2751;DHT22;1383;48.362;10.908;2023-08-20T13:37:09;33.30;17.30
2751;DHT22;1383;48.362;10.908;2023-08-20T13:39:36;33.30;17.30
2751;DHT22;1383;48.362;10.908;2023-08-20T13:42:04;33.40;16.90
2751;DHT22;1383;48.362;10.908;2023-08-20T13:44:31;33.40;16.50
2751;DHT22;1383;48.362;10.908;2023-08-20T13:46:59;33.40;15.60
2751;DHT22;1383;48.362;10.908;2023-08-20T13:49:26;33.50;16.00
2751;DHT22;1383;48.362;10.908;2023-08-20T13:51:53;33.60;16.20
2751;DHT22;1383;48.362;10.908;2023-08-20T13:54:20;33.60;15.70
2751;DHT22;1383;48.362;10.908;2023-08-20T13:56:48;33.60;15.80
2751;DHT22;1383;48.362;10.908;2023-08-20T13:59:15;33.60;15.00
2751;DHT22;1383;48.362;10.908;2023-08-20T14:01:42;33.60;15.00
2751;DHT22;1383;48.362;10.908;2023-08-20T14:04:09;33.70;14.80
2751;DHT22;1383;48.362;10.908;2023-08-20T14:06:37;33.70;15.50
2751;DHT22;1383;48.362;10.908;2023-08-20T14:09:05;33.60;15.00
2751;DHT22;1383;48.362;10.908;2023-08-20T14:11:32;33.70;15.70
2751;DHT22;1383;48.362;10.908;2023-08-20T14:14:01;33.60;15.60
2751;DHT22;1383;48.362;10.908;2023-08-20T14:16:29;33.60;15.10
2751;DHT22;1383;48.362;10.908;2023-08-20T14:18:56;33.50;15.00
2751;DHT22;1383;48.362;10.908;2023-08-20T14:21:23;33.40;15.30
2751;DHT22;1383;48.362;10.908;2023-08-20T14:23:51;33.40;15.60
2751;DHT22;1383;48.362;10.908;2023-08-20T14:26:19;33.40;15.50
2751;DHT22;1383;48.362;10.908;2023-08-20T14:29:04;33.40;15.30
2751;DHT22;1383;48.362;10.908;2023-08-20T14:31:54;33.50;15.70
2751;DHT22;1383;48.362;10.908;2023-08-20T14:34:41;33.50;14.60
2751;DHT22;1383;48.362;10.908;2023-08-20T14:37:10;33.40;15.20
2751;DHT22;1383;48.362;10.908;2023-08-20T14:39:40;33.30;15.60
2751;DHT22;1383;48.362;10.908;2023-08-20T21:02:45;27.80;34.90
2751;DHT22;1383;48.362;10.908;2023-08-20T21:05:13;27.70;34.90
2751;DHT22;1383;48.362;10.908;2023-08-20T21:07:40;27.70;34.90
2751;DHT22;1383;48.362;10.908;2023-08-20T21:10:07;27.50;35.30
2751;DHT22;1383;48.362;10.908;2023-08-20T21:12:34;27.40;35.50
2751;DHT22;1383;48.362;10.908;2023-08-20T21:15:02;27.30;35.90
2751;DHT22;1383;48.362;10.908;2023-08-20T21:17:29;27.30;36.30
2751;DHT22;1383;48.362;10.908;2023-08-20T21:19:56;27.20;36.70
2751;DHT22;1383;48.362;10.908;2023-08-20T21:22:24;27.10;37.30
2751;DHT22;1383;48.362;10.908;2023-08-20T21:24:51;27.00;37.50
2751;DHT22;1383;48.362;10.908;2023-08-20T21:27:18;26.90;37.90
2751;DHT22;1383;48.362;10.908;2023-08-20T21:29:45;26.90;38.40
2751;DHT22;1383;48.362;10.908;2023-08-20T21:32:12;26.80;38.50
2751;DHT22;1383;48.362;10.908;2023-08-20T21:34:39;26.80;39.10
2751;DHT22;1383;48.362;10.908;2023-08-20T21:37:06;26.70;39.50
2751;DHT22;1383;48.362;10.908;2023-08-20T21:39:33;26.60;39.90
2751;DHT22;1383;48.362;10.908;2023-08-20T21:42:00;26.60;40.10
2751;DHT22;1383;48.362;10.908;2023-08-20T21:44:27;26.60;41.00
2751;DHT22;1383;48.362;10.908;2023-08-20T21:46:55;26.60;40.40
2751;DHT22;1383;48.362;10.908;2023-08-20T21:49:22;26.60;40.40
2751;DHT22;1383;48.362;10.908;2023-08-20T21:51:52;26.70;40.50
2751;DHT22;1383;48.362;10.908;2023-08-20T21:54:19;26.70;40.60
2751;DHT22;1383;48.362;10.908;2023-08-20T21:56:50;26.70;40.80
2751;DHT22;1383;48.362;10.908;2023-08-20T21:59:21;26.60;40.60
2751;DHT22;1383;48.362;10.908;2023-08-20T22:01:48;26.50;40.80
2751;DHT22;1383;48.362;10.908;2023-08-20T22:04:15;26.50;41.20
2751;DHT22;1383;48.362;10.908;2023-08-20T22:06:42;26.40;41.60
2751;DHT22;1383;48.362;10.908;2023-08-20T22:09:09;26.40;42.10
2751;DHT22;1383;48.362;10.908;2023-08-20T22:11:37;26.30;42.50
2751;DHT22;1383;48.362;10.908;2023-08-20T22:14:04;26.30;42.60
2751;DHT22;1383;48.362;10.908;2023-08-20T22:16:31;26.30;42.90
2751;DHT22;1383;48.362;10.908;2023-08-20T22:18:59;26.20;43.50
2751;DHT22;1383;48.362;10.908;2023-08-20T22:21:26;26.20;43.50
2751;DHT22;1383;48.362;10.908;2023-08-20T22:23:53;26.20;43.60
2751;DHT22;1383;48.362;10.908;2023-08-20T22:26:20;26.20;43.90
2751;DHT22;1383;48.362;10.908;2023-08-20T22:28:47;26.30;43.70
2751;DHT22;1383;48.362;10.908;2023-08-20T22:31:14;26.30;44.00
2751;DHT22;1383;48.362;10.908;2023-08-20T22:33:41;26.40;44.20
2751;DHT22;1383;48.362;10.908;2023-08-20T22:36:08;26.40;44.30
2751;DHT22;1383;48.362;10.908;2023-08-20T22:38:35;26.40;44.40
2751;DHT22;1383;48.362;10.908;2023-08-20T22:41:02;26.40;44.20
2751;DHT22;1383;48.362;10.908;2023-08-20T22:43:29;26.40;44.50
2751;DHT22;1383;48.362;10.908;2023-08-20T22:45:56;26.30;44.80
2751;DHT22;1383;48.362;10.908;2023-08-20T22:48:24;26.40;45.00
2751;DHT22;1383;48.362;10.908;2023-08-20T22:50:51;26.30;45.30
2751;DHT22;1383;48.362;10.908;2023-08-20T22:53:18;26.30;45.90
2751;DHT22;1383;48.362;10.908;2023-08-20T22:55:50;26.20;46.20
2751;DHT22;1383;48.362;10.908;2023-08-20T22:58:18;26.20;46.80
2751;DHT22;1383;48.362;10.908;2023-08-20T23:00:46;26.20;47.00
2751;DHT22;1383;48.362;10.908;2023-08-20T23:03:13;26.20;47.20
2751;DHT22;1383;48.362;10.908;2023-08-20T23:05:40;26.10;47.50
2751;DHT22;1383;48.362;10.908;2023-08-20T23:08:07;26.00;47.80
2751;DHT22;1383;48.362;10.908;2023-08-20T23:10:34;25.90;48.40
2751;DHT22;1383;48.362;10.908;2023-08-20T23:13:01;25.90;48.80
2751;DHT22;1383;48.362;10.908;2023-08-20T23:15:28;25.90;48.70
2751;DHT22;1383;48.362;10.908;2023-08-20T23:17:55;25.90;48.80
2751;DHT22;1383;48.362;10.908;2023-08-20T23:20:22;25.90;48.40
2751;DHT22;1383;48.362;10.908;2023-08-20T23:22:49;25.90;48.10
2751;DHT22;1383;48.362;10.908;2023-08-20T23:25:16;26.00;48.00
2751;DHT22;1383;48.362;10.908;2023-08-20T23:27:43;26.00;47.80
2751;DHT22;1383;48.362;10.908;2023-08-20T23:30:10;26.00;47.60
2751;DHT22;1383;48.362;10.908;2023-08-20T23:32:37;26.10;47.70
2751;DHT22;1383;48.362;10.908;2023-08-20T23:35:05;26.10;47.60
2751;DHT22;1383;48.362;10.908;2023-08-20T23:37:36;26.10;47.50
2751;DHT22;1383;48.362;10.908;2023-08-20T23:40:04;26.10;47.40
2751;DHT22;1383;48.362;10.908;2023-08-20T23:42:31;26.10;47.90
2751;DHT22;1383;48.362;10.908;2023-08-20T23:44:58;26.10;48.10
2751;DHT22;1383;48.362;10.908;2023-08-20T23:47:25;26.10;47.90
2751;DHT22;1383;48.362;10.908;2023-08-20T23:49:51;26.20;48.70
2751;DHT22;1383;48.362;10.908;2023-08-20T23:52:18;26.20;48.00
2751;DHT22;1383;48.362;10.908;2023-08-20T23:54:45;26.00;48.70
2751;DHT22;1383;48.362;10.908;2023-08-20T23:57:12;25.90;49.20
2751;DHT22;1383;48.362;10.908;2023-08-20T23:59:39;25.90;49.50
